Time;durP1;ratioP1;P1;durP2;ratioP2;P2;SDS_P1;SDS_P2;PMS_P1;PMS_P2;Temp;Humidity;BMP_temperature;BMP_pressure;BME280_temperature;BME280_humidity;BME280_pressure;Samples;Min_cycle;Max_cycle;Signal;HPM_P1;HPM_P2
2021/10/24 00:00:09;;;;;;;11.52;6.75;;;;;;;;;;763057;183;919839;-64
2021/10/24 00:02:36;;;;;;;16.60;8.13;;;;;;;;;;768156;183;918942;-64
2021/10/24 00:05:01;;;;;;;15.60;7.43;;;;;;;;;;765934;183;918640;-65
2021/10/24 00:07:26;;;;;;;14.80;6.93;;;;;;;;;;762783;183;918779;-65
2021/10/24 00:09:52;;;;;;;18.10;8.40;;;;;;;;;;769992;183;919202;-65
2021/10/24 00:12:18;;;;;;;13.70;9.47;;;;;;;;;;765742;183;919435;-63
2021/10/24 00:14:44;;;;;;;14.80;8.80;;;;;;;;;;766345;183;919751;-64
2021/10/24 00:17:10;;;;;;;18.77;9.90;;;;;;;;;;767032;183;1020150;-64
2021/10/24 00:19:36;;;;;;;15.07;8.87;;;;;;;;;;760321;183;918937;-64
2021/10/24 00:22:01;;;;;;;14.20;10.40;;;;;;;;;;765084;183;918948;-65
2021/10/24 00:24:27;;;;;;;12.30;7.97;;;;;;;;;;768678;183;918178;-63
2021/10/24 00:26:53;;;;;;;13.97;9.20;;;;;;;;;;763689;183;918873;-63
2021/10/24 00:29:19;;;;;;;13.33;8.33;;;;;;;;;;765827;183;919871;-64
2021/10/24 00:31:45;;;;;;;15.57;9.60;;;;;;;;;;762959;183;918897;-64
2021/10/24 00:34:11;;;;;;;15.43;8.50;;;;;;;;;;770023;183;918765;-64
2021/10/24 00:36:36;;;;;;;15.73;9.40;;;;;;;;;;765054;183;917938;-64
2021/10/24 00:39:02;;;;;;;16.90;9.63;;;;;;;;;;764928;183;1018460;-64
2021/10/24 00:41:30;;;;;;;19.10;9.80;;;;;;;;;;768134;183;918719;-64
2021/10/24 00:43:54;;;;;;;20.90;9.90;;;;;;;;;;766368;180;932651;-63
2021/10/24 00:46:20;;;;;;;21.30;8.70;;;;;;;;;;765600;182;915872;-63
2021/10/24 00:48:46;;;;;;;15.40;9.93;;;;;;;;;;772611;182;919813;-62
2021/10/24 00:51:13;;;;;;;15.00;9.80;;;;;;;;;;766825;183;918736;-63
2021/10/24 00:53:37;;;;;;;18.03;9.33;;;;;;;;;;765517;183;919329;-63
2021/10/24 00:56:04;;;;;;;16.70;9.20;;;;;;;;;;765079;183;919614;-63
2021/10/24 00:58:29;;;;;;;16.90;8.50;;;;;;;;;;769078;183;918837;-64
2021/10/24 01:00:55;;;;;;;14.73;8.47;;;;;;;;;;763712;183;919038;-63
2021/10/24 01:03:21;;;;;;;13.30;8.30;;;;;;;;;;764468;182;919286;-63
2021/10/24 01:05:47;;;;;;;16.65;9.20;;;;;;;;;;770448;183;918412;-63
2021/10/24 01:08:13;;;;;;;16.17;8.00;;;;;;;;;;760534;183;919323;-63
2021/10/24 01:10:39;;;;;;;12.40;7.90;;;;;;;;;;765558;183;918590;-64
2021/10/24 01:13:04;;;;;;;11.33;8.47;;;;;;;;;;768930;183;918376;-63
2021/10/24 01:15:30;;;;;;;14.67;7.30;;;;;;;;;;765162;183;918813;-63
2021/10/24 01:17:56;;;;;;;15.33;8.27;;;;;;;;;;764687;183;917693;-63
2021/10/24 01:20:22;;;;;;;13.80;8.07;;;;;;;;;;763508;183;918475;-61
2021/10/24 01:22:48;;;;;;;16.02;8.82;;;;;;;;;;774648;180;919535;-62
2021/10/24 01:25:14;;;;;;;14.50;8.00;;;;;;;;;;763407;183;923796;-63
2021/10/24 01:27:40;;;;;;;15.37;8.03;;;;;;;;;;762295;183;919450;-63
2021/10/24 01:30:06;;;;;;;15.10;8.27;;;;;;;;;;771821;183;919986;-63
2021/10/24 01:32:32;;;;;;;16.80;7.90;;;;;;;;;;765132;183;917317;-63
2021/10/24 01:34:59;;;;;;;10.60;6.97;;;;;;;;;;765183;183;914749;-62
2021/10/24 01:37:24;;;;;;;10.90;7.20;;;;;;;;;;769017;183;1017611;-63
2021/10/24 01:39:50;;;;;;;19.60;8.03;;;;;;;;;;765864;183;914734;-63
2021/10/24 01:42:16;;;;;;;10.65;8.10;;;;;;;;;;764217;183;918385;-63
2021/10/24 01:44:43;;;;;;;11.12;7.40;;;;;;;;;;762293;183;919450;-62
2021/10/24 01:47:08;;;;;;;13.40;8.70;;;;;;;;;;767425;180;918514;-62
2021/10/24 01:49:34;;;;;;;17.87;7.30;;;;;;;;;;764348;183;927033;-64
2021/10/24 01:51:59;;;;;;;14.47;7.77;;;;;;;;;;764269;183;919505;-63
2021/10/24 01:54:26;;;;;;;18.07;8.23;;;;;;;;;;770755;182;919613;-64
2021/10/24 01:56:51;;;;;;;18.93;7.97;;;;;;;;;;765111;183;919064;-63
2021/10/24 01:59:17;;;;;;;20.00;9.17;;;;;;;;;;763636;183;919241;-63
2021/10/24 02:01:43;;;;;;;10.80;7.37;;;;;;;;;;770127;183;918981;-63
2021/10/24 02:04:09;;;;;;;12.53;7.50;;;;;;;;;;767510;182;918331;-63
2021/10/24 02:06:35;;;;;;;21.63;9.03;;;;;;;;;;764439;183;918953;-63
2021/10/24 02:09:01;;;;;;;12.80;7.17;;;;;;;;;;772818;183;918698;-63
2021/10/24 02:11:26;;;;;;;11.87;8.10;;;;;;;;;;766641;183;919455;-62
2021/10/24 02:13:52;;;;;;;14.87;7.90;;;;;;;;;;765493;183;918356;-63
2021/10/24 02:16:18;;;;;;;13.30;9.00;;;;;;;;;;762820;183;1019908;-63
2021/10/24 02:18:44;;;;;;;14.67;9.73;;;;;;;;;;771837;183;919145;-62
2021/10/24 02:21:10;;;;;;;13.03;7.67;;;;;;;;;;763888;183;919485;-63
2021/10/24 02:23:36;;;;;;;17.37;9.20;;;;;;;;;;761762;182;919453;-64
2021/10/24 02:26:01;;;;;;;14.63;7.80;;;;;;;;;;769385;183;919960;-62
2021/10/24 02:28:27;;;;;;;15.43;7.20;;;;;;;;;;763926;183;917966;-63
2021/10/24 02:30:53;;;;;;;10.53;7.73;;;;;;;;;;764183;183;919033;-63
2021/10/24 02:33:19;;;;;;;11.30;7.43;;;;;;;;;;769810;183;919640;-63
2021/10/24 02:35:45;;;;;;;11.25;7.85;;;;;;;;;;763968;183;919526;-63
2021/10/24 02:38:11;;;;;;;12.20;7.77;;;;;;;;;;766954;183;919118;-63
2021/10/24 02:40:37;;;;;;;16.50;8.93;;;;;;;;;;766107;183;928499;-62
2021/10/24 02:43:03;;;;;;;12.20;7.93;;;;;;;;;;760912;183;919774;-63
2021/10/24 02:45:29;;;;;;;11.50;7.60;;;;;;;;;;759745;183;1021323;-63
2021/10/24 02:47:56;;;;;;;18.73;9.57;;;;;;;;;;762084;183;918650;-63
2021/10/24 02:50:20;;;;;;;10.47;7.10;;;;;;;;;;767694;183;918615;-63
2021/10/24 02:52:46;;;;;;;19.03;8.00;;;;;;;;;;765632;183;897943;-62
2021/10/24 02:55:12;;;;;;;19.30;7.40;;;;;;;;;;765352;183;918812;-63
2021/10/24 02:57:38;;;;;;;15.60;9.60;;;;;;;;;;770724;183;918308;-63
2021/10/24 03:00:04;;;;;;;13.73;8.00;;;;;;;;;;763764;183;919184;-63
2021/10/24 03:02:30;;;;;;;16.90;8.75;;;;;;;;;;764726;183;918531;-64
2021/10/24 03:04:56;;;;;;;11.20;7.25;;;;;;;;;;765251;183;1020863;-62
2021/10/24 03:07:22;;;;;;;25.10;9.13;;;;;;;;;;762265;181;918676;-63
2021/10/24 03:09:47;;;;;;;12.10;7.70;;;;;;;;;;764667;182;1047209;-63
2021/10/24 03:12:13;;;;;;;14.70;8.75;;;;;;;;;;764310;182;919554;-62
2021/10/24 03:14:39;;;;;;;16.50;8.40;;;;;;;;;;772463;183;1000891;-61
2021/10/24 03:17:05;;;;;;;12.73;8.87;;;;;;;;;;769341;183;919935;-63
2021/10/24 03:19:31;;;;;;;17.23;9.03;;;;;;;;;;766679;183;919984;-62
2021/10/24 03:21:57;;;;;;;17.57;12.00;;;;;;;;;;773052;183;918848;-62
2021/10/24 03:24:23;;;;;;;15.07;8.63;;;;;;;;;;768471;183;918697;-62
2021/10/24 03:26:48;;;;;;;11.40;7.73;;;;;;;;;;770611;183;917680;-63
2021/10/24 03:29:14;;;;;;;15.17;7.97;;;;;;;;;;774800;183;628538;-63
2021/10/24 03:31:40;;;;;;;13.60;8.50;;;;;;;;;;763122;183;918709;-63
2021/10/24 03:34:06;;;;;;;14.50;8.50;;;;;;;;;;761240;183;917072;-62
2021/10/24 03:36:32;;;;;;;15.25;8.00;;;;;;;;;;763160;183;915455;-62
2021/10/24 03:38:58;;;;;;;19.17;8.20;;;;;;;;;;769453;183;916627;-62
2021/10/24 03:41:23;;;;;;;16.70;8.40;;;;;;;;;;762997;183;919954;-62
2021/10/24 03:43:49;;;;;;;17.17;8.93;;;;;;;;;;762182;183;915509;-63
2021/10/24 03:46:15;;;;;;;14.87;10.17;;;;;;;;;;765785;183;1057735;-62
2021/10/24 03:48:41;;;;;;;17.43;9.50;;;;;;;;;;766059;183;917869;-63
2021/10/24 03:51:07;;;;;;;15.67;8.70;;;;;;;;;;763990;183;1019007;-62
2021/10/24 03:53:33;;;;;;;17.10;11.00;;;;;;;;;;768759;183;921380;-62
2021/10/24 03:55:58;;;;;;;14.33;8.57;;;;;;;;;;765382;183;921875;-62
2021/10/24 03:58:24;;;;;;;13.13;9.03;;;;;;;;;;766694;183;918241;-62
2021/10/24 04:00:50;;;;;;;15.70;7.93;;;;;;;;;;766503;183;916242;-62
2021/10/24 04:03:16;;;;;;;16.40;9.83;;;;;;;;;;766990;180;921466;-63
2021/10/24 04:05:47;;;;;;;16.07;9.00;;;;;;;;;;765857;183;915074;-63
2021/10/24 04:08:08;;;;;;;19.33;9.23;;;;;;;;;;758892;183;918740;-61
2021/10/24 04:10:33;;;;;;;16.15;10.10;;;;;;;;;;770119;183;918379;-62
2021/10/24 04:12:59;;;;;;;12.90;8.80;;;;;;;;;;763250;183;918935;-62
2021/10/24 04:15:25;;;;;;;19.53;8.03;;;;;;;;;;764419;183;925856;-62
2021/10/24 04:17:51;;;;;;;12.57;9.20;;;;;;;;;;772106;181;919019;-62
2021/10/24 04:20:17;;;;;;;14.30;8.80;;;;;;;;;;768621;182;919369;-63
2021/10/24 04:22:43;;;;;;;19.43;9.73;;;;;;;;;;768197;182;918648;-62
2021/10/24 04:25:09;;;;;;;15.57;8.27;;;;;;;;;;769148;183;919055;-63
2021/10/24 04:27:34;;;;;;;18.90;8.57;;;;;;;;;;764771;183;919894;-63
2021/10/24 04:30:00;;;;;;;18.17;9.00;;;;;;;;;;763198;183;915717;-62
2021/10/24 04:32:26;;;;;;;14.00;8.20;;;;;;;;;;763721;183;915521;-62
2021/10/24 04:34:52;;;;;;;14.43;9.10;;;;;;;;;;774031;183;920424;-62
2021/10/24 04:37:18;;;;;;;13.43;9.48;;;;;;;;;;765298;183;919734;-62
2021/10/24 04:39:44;;;;;;;21.37;10.87;;;;;;;;;;760616;183;919151;-62
2021/10/24 04:42:10;;;;;;;16.57;9.50;;;;;;;;;;767241;183;919456;-62
2021/10/24 04:44:36;;;;;;;18.80;10.47;;;;;;;;;;763013;183;1022374;-62
2021/10/24 04:47:01;;;;;;;18.37;10.77;;;;;;;;;;764633;183;918707;-63
2021/10/24 04:49:27;;;;;;;15.95;10.57;;;;;;;;;;767339;183;918941;-62
2021/10/24 04:51:53;;;;;;;15.40;9.97;;;;;;;;;;764790;183;918600;-62
2021/10/24 04:54:21;;;;;;;18.15;10.05;;;;;;;;;;762690;183;919693;-62
2021/10/24 04:56:45;;;;;;;16.50;11.03;;;;;;;;;;763600;183;919322;-61
2021/10/24 04:59:11;;;;;;;15.20;9.20;;;;;;;;;;757873;183;918803;-62
2021/10/24 05:01:36;;;;;;;17.63;9.73;;;;;;;;;;756492;183;1122527;-62
2021/10/24 05:04:02;;;;;;;18.50;10.07;;;;;;;;;;763315;183;918303;-62
2021/10/24 05:06:29;;;;;;;16.43;9.70;;;;;;;;;;769231;183;937663;-62
2021/10/24 05:08:54;;;;;;;20.27;10.17;;;;;;;;;;764326;183;918388;-62
2021/10/24 05:11:20;;;;;;;21.70;10.63;;;;;;;;;;765008;183;919070;-62
2021/10/24 05:13:46;;;;;;;13.53;9.50;;;;;;;;;;768488;183;918654;-62
2021/10/24 05:16:12;;;;;;;10.27;8.60;;;;;;;;;;763118;183;918983;-63
2021/10/24 05:18:37;;;;;;;15.90;9.47;;;;;;;;;;762884;183;919256;-62
2021/10/24 05:21:04;;;;;;;18.20;11.05;;;;;;;;;;769668;183;918942;-62
2021/10/24 05:23:31;;;;;;;15.17;10.10;;;;;;;;;;770749;181;919855;-63
2021/10/24 05:25:56;;;;;;;16.73;10.70;;;;;;;;;;766248;183;919303;-61
2021/10/24 05:28:22;;;;;;;18.65;11.12;;;;;;;;;;765381;183;920022;-63
2021/10/24 05:30:47;;;;;;;22.20;12.77;;;;;;;;;;770727;182;952915;-63
2021/10/24 05:33:13;;;;;;;18.50;11.17;;;;;;;;;;765458;183;919299;-62
2021/10/24 05:35:39;;;;;;;42.43;14.40;;;;;;;;;;764558;183;918981;-62
2021/10/24 05:38:05;;;;;;;43.20;15.77;;;;;;;;;;770532;183;1225066;-61
2021/10/24 05:40:31;;;;;;;58.00;19.92;;;;;;;;;;764067;183;919389;-63
2021/10/24 05:42:57;;;;;;;46.73;19.00;;;;;;;;;;763277;183;921270;-63
2021/10/24 05:45:23;;;;;;;60.43;21.33;;;;;;;;;;770854;183;917764;-62
2021/10/24 05:47:48;;;;;;;62.07;19.97;;;;;;;;;;763588;183;920353;-63
2021/10/24 05:50:15;;;;;;;92.43;20.40;;;;;;;;;;764468;183;906610;-63
2021/10/24 05:52:41;;;;;;;86.45;21.73;;;;;;;;;;763795;183;919114;-62
2021/10/24 05:55:07;;;;;;;57.67;21.33;;;;;;;;;;769192;183;920411;-64
2021/10/24 05:57:33;;;;;;;95.83;22.67;;;;;;;;;;764002;183;918930;-63
2021/10/24 05:59:59;;;;;;;103.00;21.73;;;;;;;;;;764309;183;916925;-63
2021/10/24 06:02:25;;;;;;;68.30;24.00;;;;;;;;;;769965;183;916056;-63
2021/10/24 06:04:50;;;;;;;106.50;25.00;;;;;;;;;;765193;183;1016544;-63
2021/10/24 06:07:16;;;;;;;74.27;23.33;;;;;;;;;;762394;183;1009681;-62
2021/10/24 06:09:49;;;;;;;55.70;23.10;;;;;;;;;;769371;183;919401;-63
2021/10/24 06:12:12;;;;;;;68.50;22.00;;;;;;;;;;762413;183;944635;-64
2021/10/24 06:14:34;;;;;;;92.93;23.77;;;;;;;;;;763312;183;919294;-63
2021/10/24 06:17:00;;;;;;;66.43;22.77;;;;;;;;;;764796;183;918466;-63
2021/10/24 06:19:26;;;;;;;84.63;23.27;;;;;;;;;;768992;183;919158;-63
2021/10/24 06:21:51;;;;;;;94.83;21.63;;;;;;;;;;764197;183;920650;-63
2021/10/24 06:24:17;;;;;;;83.75;27.75;;;;;;;;;;763659;183;919872;-66
2021/10/24 06:26:45;;;;;;;58.00;23.17;;;;;;;;;;769992;183;816535;-63
2021/10/24 06:29:09;;;;;;;58.27;21.30;;;;;;;;;;764086;183;918298;-64
2021/10/24 06:31:35;;;;;;;52.23;24.70;;;;;;;;;;764458;183;919230;-63
2021/10/24 06:34:01;;;;;;;52.27;22.67;;;;;;;;;;769532;183;920538;-64
2021/10/24 06:36:27;;;;;;;52.78;23.85;;;;;;;;;;761606;183;919190;-63
2021/10/24 06:38:53;;;;;;;66.33;25.57;;;;;;;;;;767399;183;919522;-65
2021/10/24 06:41:19;;;;;;;81.80;31.10;;;;;;;;;;765696;181;919046;-64
2021/10/24 06:43:45;;;;;;;83.07;35.70;;;;;;;;;;771466;180;918918;-65
2021/10/24 06:46:11;;;;;;;67.67;33.97;;;;;;;;;;764825;182;919549;-65
2021/10/24 06:48:36;;;;;;;63.50;37.77;;;;;;;;;;767317;183;919284;-65
2021/10/24 06:51:02;;;;;;;61.03;32.10;;;;;;;;;;771924;183;919078;-66
2021/10/24 06:53:28;;;;;;;70.07;34.43;;;;;;;;;;765571;183;920286;-65
2021/10/24 06:55:54;;;;;;;167.37;74.50;;;;;;;;;;764688;183;918727;-63
2021/10/24 06:58:20;;;;;;;172.43;85.47;;;;;;;;;;769831;183;919454;-63
2021/10/24 07:00:46;;;;;;;174.53;81.27;;;;;;;;;;764602;183;919105;-64
2021/10/24 07:03:11;;;;;;;162.67;80.63;;;;;;;;;;764174;183;919327;-64
2021/10/24 07:05:37;;;;;;;184.87;87.10;;;;;;;;;;769516;183;918102;-63
2021/10/24 07:08:05;;;;;;;234.40;117.90;;;;;;;;;;764732;183;921871;-64
2021/10/24 07:10:29;;;;;;;204.07;91.10;;;;;;;;;;763762;183;919541;-64
2021/10/24 07:12:55;;;;;;;161.07;72.50;;;;;;;;;;765642;183;926596;-63
2021/10/24 07:15:21;;;;;;;45.07;25.33;;;;;;;;;;768750;183;910685;-63
2021/10/24 07:17:47;;;;;;;43.93;21.87;;;;;;;;;;764142;183;916135;-61
2021/10/24 07:20:13;;;;;;;37.50;23.20;;;;;;;;;;764276;183;919759;-62
2021/10/24 07:22:39;;;;;;;44.37;22.33;;;;;;;;;;768974;183;944243;-62
2021/10/24 07:25:05;;;;;;;40.07;19.83;;;;;;;;;;765607;183;917677;-62
2021/10/24 07:27:30;;;;;;;55.17;32.00;;;;;;;;;;763586;182;918721;-62
2021/10/24 07:29:56;;;;;;;42.20;22.90;;;;;;;;;;767661;183;1020865;-60
2021/10/24 07:32:23;;;;;;;36.40;18.87;;;;;;;;;;763880;183;919047;-62
2021/10/24 07:34:48;;;;;;;36.17;20.20;;;;;;;;;;762934;183;919327;-62
2021/10/24 07:37:14;;;;;;;38.47;19.37;;;;;;;;;;763659;183;918393;-61
2021/10/24 07:39:40;;;;;;;45.70;24.48;;;;;;;;;;769024;183;919519;-61
2021/10/24 07:42:06;;;;;;;30.33;19.63;;;;;;;;;;762278;183;919588;-61
2021/10/24 07:44:32;;;;;;;34.03;20.77;;;;;;;;;;762703;183;921243;-62
2021/10/24 07:46:57;;;;;;;39.75;21.87;;;;;;;;;;768292;183;919040;-61
2021/10/24 07:49:24;;;;;;;40.17;23.17;;;;;;;;;;763173;182;919248;-60
2021/10/24 07:51:50;;;;;;;54.72;30.45;;;;;;;;;;764701;181;915537;-62
2021/10/24 07:54:20;;;;;;;56.47;26.77;;;;;;;;;;772370;182;919582;-62
2021/10/24 07:56:45;;;;;;;37.57;22.20;;;;;;;;;;773606;182;919767;-62
2021/10/24 07:59:11;;;;;;;41.50;22.87;;;;;;;;;;765271;183;1094480;-62
2021/10/24 08:01:37;;;;;;;43.60;23.73;;;;;;;;;;764808;183;1025069;-61
2021/10/24 08:04:03;;;;;;;46.23;22.77;;;;;;;;;;772225;183;915511;-62
2021/10/24 08:06:29;;;;;;;40.50;23.77;;;;;;;;;;770667;183;613639;-63
2021/10/24 08:08:55;;;;;;;41.43;23.93;;;;;;;;;;767227;183;917844;-61
2021/10/24 08:11:21;;;;;;;33.90;19.40;;;;;;;;;;769159;183;920701;-61
2021/10/24 08:13:46;;;;;;;35.60;20.93;;;;;;;;;;767303;183;912944;-61
2021/10/24 08:16:12;;;;;;;32.83;19.30;;;;;;;;;;768361;183;633492;-62
2021/10/24 08:18:38;;;;;;;44.03;22.87;;;;;;;;;;769197;183;619136;-63
2021/10/24 08:21:04;;;;;;;44.70;28.00;;;;;;;;;;769008;183;618706;-62
2021/10/24 08:23:31;;;;;;;53.23;34.73;;;;;;;;;;769998;183;624634;-64
2021/10/24 08:25:56;;;;;;;44.57;24.10;;;;;;;;;;770896;183;650965;-63
2021/10/24 08:28:22;;;;;;;40.33;22.83;;;;;;;;;;774945;183;624447;-65
2021/10/24 08:30:48;;;;;;;36.43;21.50;;;;;;;;;;770271;183;621244;-63
2021/10/24 08:33:13;;;;;;;26.77;16.40;;;;;;;;;;767760;183;619315;-64
2021/10/24 08:35:39;;;;;;;25.30;14.00;;;;;;;;;;771551;183;618867;-63
2021/10/24 08:38:05;;;;;;;32.23;20.17;;;;;;;;;;768063;183;623500;-63
2021/10/24 08:40:31;;;;;;;28.33;18.87;;;;;;;;;;767895;183;663500;-64
2021/10/24 08:43:03;;;;;;;29.20;17.23;;;;;;;;;;773750;183;615809;-63
2021/10/24 08:45:23;;;;;;;41.27;25.23;;;;;;;;;;769835;183;625637;-63
2021/10/24 08:47:49;;;;;;;37.30;24.60;;;;;;;;;;770447;183;628520;-64
2021/10/24 08:50:15;;;;;;;23.37;15.13;;;;;;;;;;769591;183;660400;-64
2021/10/24 08:52:41;;;;;;;29.42;15.55;;;;;;;;;;772458;183;912615;-64
2021/10/24 08:55:07;;;;;;;43.53;25.50;;;;;;;;;;768582;183;621694;-64
2021/10/24 08:57:33;;;;;;;23.30;14.07;;;;;;;;;;768047;183;634694;-63
2021/10/24 08:59:59;;;;;;;36.47;19.43;;;;;;;;;;772808;183;614395;-63
2021/10/24 09:02:25;;;;;;;37.83;18.17;;;;;;;;;;768314;183;622614;-63
2021/10/24 09:04:50;;;;;;;24.20;12.77;;;;;;;;;;770712;181;678951;-64
2021/10/24 09:07:16;;;;;;;30.60;15.10;;;;;;;;;;773759;182;711037;-64
2021/10/24 09:09:42;;;;;;;48.67;20.60;;;;;;;;;;770575;183;718081;-63
2021/10/24 09:12:08;;;;;;;17.17;9.30;;;;;;;;;;770350;183;628550;-63
2021/10/24 09:14:49;;;;;;;21.90;7.90;;;;;;;;;;768359;183;644626;-63
2021/10/24 09:17:17;;;;;;;16.87;6.12;;;;;;;;;;765600;183;617253;-63
2021/10/24 09:19:42;;;;;;;26.93;13.40;;;;;;;;;;767101;183;916856;-63
2021/10/24 09:22:11;;;;;;;17.60;9.57;;;;;;;;;;766592;183;669081;-63
2021/10/24 09:24:37;;;;;;;18.43;8.53;;;;;;;;;;769483;183;625131;-63
2021/10/24 09:27:03;;;;;;;13.57;8.90;;;;;;;;;;772690;183;614272;-65
2021/10/24 09:29:29;;;;;;;17.30;8.50;;;;;;;;;;768643;183;642301;-63
2021/10/24 09:31:55;;;;;;;15.23;8.10;;;;;;;;;;767775;183;628049;-66
2021/10/24 09:34:22;;;;;;;11.97;8.80;;;;;;;;;;772074;183;621687;-63
2021/10/24 09:36:49;;;;;;;19.50;10.20;;;;;;;;;;771956;183;616958;-64
2021/10/24 09:39:15;;;;;;;14.10;7.50;;;;;;;;;;768614;183;637481;-63
2021/10/24 09:41:41;;;;;;;13.60;10.10;;;;;;;;;;766105;183;698463;-64
2021/10/24 09:44:07;;;;;;;15.90;6.27;;;;;;;;;;774651;183;634623;-65
2021/10/24 09:46:32;;;;;;;15.03;6.70;;;;;;;;;;767942;183;622726;-64
2021/10/24 09:48:58;;;;;;;13.53;8.90;;;;;;;;;;770180;183;627741;-63
2021/10/24 09:51:24;;;;;;;18.20;7.83;;;;;;;;;;773476;183;627740;-63
2021/10/24 09:53:54;;;;;;;11.47;7.10;;;;;;;;;;759643;183;639377;-63
2021/10/24 09:56:17;;;;;;;18.10;9.80;;;;;;;;;;768305;183;625931;-64
2021/10/24 09:58:43;;;;;;;16.57;8.20;;;;;;;;;;767774;183;632813;-64
2021/10/24 10:01:09;;;;;;;12.83;6.57;;;;;;;;;;767305;183;628298;-64
2021/10/24 10:03:34;;;;;;;14.77;6.17;;;;;;;;;;769023;183;717385;-64
2021/10/24 10:06:00;;;;;;;9.87;6.00;;;;;;;;;;765656;183;627864;-64
2021/10/24 10:08:26;;;;;;;19.67;6.30;;;;;;;;;;772770;183;625220;-64
2021/10/24 10:11:08;;;;;;;11.67;5.50;;;;;;;;;;765283;183;625453;-64
2021/10/24 10:13:34;;;;;;;10.93;7.70;;;;;;;;;;767827;183;637468;-64
2021/10/24 10:16:02;;;;;;;13.53;8.87;;;;;;;;;;767169;182;630953;-64
2021/10/24 10:18:28;;;;;;;13.03;5.67;;;;;;;;;;775312;182;662303;-65
2021/10/24 10:20:55;;;;;;;10.93;4.70;;;;;;;;;;771347;183;634834;-65
2021/10/24 10:23:21;;;;;;;5.90;2.60;;;;;;;;;;768999;183;778895;-65
2021/10/24 10:25:47;;;;;;;10.03;4.10;;;;;;;;;;769456;183;629700;-65
2021/10/24 10:28:13;;;;;;;12.73;5.20;;;;;;;;;;776405;180;649735;-66
2021/10/24 10:30:40;;;;;;;6.87;4.40;;;;;;;;;;770864;183;629740;-65
2021/10/24 10:33:25;;;;;;;11.97;7.20;;;;;;;;;;771831;183;622612;-66
2021/10/24 10:35:51;;;;;;;8.30;3.23;;;;;;;;;;766533;183;630461;-65
2021/10/24 10:38:23;;;;;;;14.53;3.00;;;;;;;;;;770205;183;623041;-66
2021/10/24 10:40:49;;;;;;;6.73;3.30;;;;;;;;;;770408;183;625585;-66
2021/10/24 10:43:17;;;;;;;8.47;3.50;;;;;;;;;;768175;183;629554;-66
2021/10/24 10:45:43;;;;;;;7.60;2.77;;;;;;;;;;768829;183;657475;-66
2021/10/24 10:48:15;;;;;;;10.17;2.20;;;;;;;;;;769350;183;620912;-65
2021/10/24 10:50:43;;;;;;;8.40;2.20;;;;;;;;;;768155;182;918166;-65
2021/10/24 10:53:07;;;;;;;8.00;4.43;;;;;;;;;;767840;183;633284;-66
2021/10/24 10:55:51;;;;;;;9.47;3.80;;;;;;;;;;768229;183;621110;-66
2021/10/24 10:58:27;;;;;;;15.13;2.43;;;;;;;;;;757587;183;614568;-66
2021/10/24 11:00:54;;;;;;;11.63;5.97;;;;;;;;;;773289;183;624152;-66
2021/10/24 11:03:20;;;;;;;10.27;5.57;;;;;;;;;;772376;183;613261;-66
2021/10/24 11:05:46;;;;;;;31.53;15.03;;;;;;;;;;767022;183;651750;-67
2021/10/24 11:08:13;;;;;;;15.80;6.00;;;;;;;;;;768776;183;628059;-66
2021/10/24 11:10:41;;;;;;;15.90;3.70;;;;;;;;;;769393;183;637761;-67
2021/10/24 11:13:07;;;;;;;10.33;2.37;;;;;;;;;;768603;183;654747;-66
2021/10/24 11:15:32;;;;;;;5.37;2.30;;;;;;;;;;766422;183;625239;-67
2021/10/24 11:17:59;;;;;;;4.70;2.10;;;;;;;;;;772169;183;613061;-67
2021/10/24 11:20:24;;;;;;;7.90;3.40;;;;;;;;;;768047;183;666041;-67
2021/10/24 11:22:51;;;;;;;8.20;2.03;;;;;;;;;;767360;183;625441;-67
2021/10/24 11:25:22;;;;;;;8.37;1.80;;;;;;;;;;764529;183;1568850;-66
2021/10/24 11:27:48;;;;;;;5.83;2.27;;;;;;;;;;773624;182;624650;-67
2021/10/24 11:30:16;;;;;;;5.00;2.70;;;;;;;;;;771982;182;635634;-67
2021/10/24 11:32:40;;;;;;;10.30;5.77;;;;;;;;;;769039;182;909799;-67
2021/10/24 11:35:17;;;;;;;9.20;4.17;;;;;;;;;;772493;183;917954;-68
2021/10/24 11:37:47;;;;;;;6.47;2.37;;;;;;;;;;773824;183;616287;-68
2021/10/24 11:40:13;;;;;;;13.50;4.43;;;;;;;;;;769092;183;643987;-67
2021/10/24 11:42:38;;;;;;;10.30;2.07;;;;;;;;;;769638;183;631299;-67
2021/10/24 11:45:09;;;;;;;7.30;2.70;;;;;;;;;;770779;183;638320;-66
2021/10/24 11:47:37;;;;;;;10.50;2.10;;;;;;;;;;774490;179;646705;-68
2021/10/24 11:50:01;;;;;;;7.00;2.30;;;;;;;;;;767728;183;634331;-68
2021/10/24 11:52:27;;;;;;;6.67;2.50;;;;;;;;;;768449;183;635913;-67
2021/10/24 11:54:58;;;;;;;8.10;2.30;;;;;;;;;;776252;183;629172;-68
2021/10/24 11:57:34;;;;;;;5.10;3.27;;;;;;;;;;772234;183;638782;-67
2021/10/24 11:59:55;;;;;;;4.83;2.13;;;;;;;;;;768649;182;637725;-68
2021/10/24 12:02:19;;;;;;;5.83;2.00;;;;;;;;;;765267;183;705791;-67
2021/10/24 12:04:45;;;;;;;6.53;3.00;;;;;;;;;;771310;183;641703;-67
2021/10/24 12:07:11;;;;;;;8.90;2.37;;;;;;;;;;767932;183;621393;-67
2021/10/24 12:09:40;;;;;;;7.73;3.20;;;;;;;;;;769147;183;620723;-67
2021/10/24 12:12:11;;;;;;;4.90;2.97;;;;;;;;;;768857;183;633751;-68
2021/10/24 12:14:42;;;;;;;7.03;3.17;;;;;;;;;;773833;183;629620;-68
2021/10/24 12:17:14;;;;;;;6.37;2.70;;;;;;;;;;767854;183;635154;-67
2021/10/24 12:19:40;;;;;;;7.77;1.97;;;;;;;;;;770097;183;627981;-66
2021/10/24 12:22:06;;;;;;;6.60;2.43;;;;;;;;;;769191;183;915907;-67
2021/10/24 12:24:38;;;;;;;8.90;2.10;;;;;;;;;;771914;183;644686;-67
2021/10/24 12:27:05;;;;;;;6.27;2.47;;;;;;;;;;767703;183;629186;-66
2021/10/24 12:29:31;;;;;;;5.57;2.07;;;;;;;;;;767770;183;649655;-67
2021/10/24 12:32:02;;;;;;;6.70;2.10;;;;;;;;;;769540;183;619268;-66
2021/10/24 12:34:28;;;;;;;6.83;2.00;;;;;;;;;;773901;182;636190;-68
2021/10/24 12:36:54;;;;;;;10.53;2.83;;;;;;;;;;770115;183;622722;-69
2021/10/24 12:39:20;;;;;;;6.00;3.03;;;;;;;;;;766355;181;959378;-68
2021/10/24 12:41:46;;;;;;;7.83;2.20;;;;;;;;;;775195;182;627232;-68
2021/10/24 12:44:14;;;;;;;4.20;2.10;;;;;;;;;;770303;183;644454;-69
2021/10/24 12:46:38;;;;;;;6.30;2.13;;;;;;;;;;769680;182;624839;-67
2021/10/24 12:49:09;;;;;;;7.03;2.20;;;;;;;;;;769765;183;623255;-67
2021/10/24 12:51:35;;;;;;;8.77;2.47;;;;;;;;;;778305;180;633418;-67
2021/10/24 12:54:01;;;;;;;6.50;2.70;;;;;;;;;;769397;183;644111;-67
2021/10/24 12:56:27;;;;;;;7.30;2.53;;;;;;;;;;767955;183;623444;-67
2021/10/24 12:58:53;;;;;;;8.73;2.87;;;;;;;;;;774352;183;634498;-67
2021/10/24 13:01:18;;;;;;;4.87;2.10;;;;;;;;;;766147;183;679361;-66
2021/10/24 13:03:44;;;;;;;7.53;2.33;;;;;;;;;;767678;183;633553;-66
2021/10/24 13:06:10;;;;;;;6.87;2.30;;;;;;;;;;768677;182;917655;-66
2021/10/24 13:08:36;;;;;;;6.57;3.07;;;;;;;;;;775472;180;913908;-65
2021/10/24 13:11:02;;;;;;;8.60;2.57;;;;;;;;;;768837;183;633034;-66
2021/10/24 13:13:28;;;;;;;5.57;2.53;;;;;;;;;;766973;183;636806;-66
2021/10/24 13:15:54;;;;;;;6.30;2.30;;;;;;;;;;770686;183;634858;-66
2021/10/24 13:18:20;;;;;;;5.43;2.50;;;;;;;;;;769727;183;631503;-67
2021/10/24 13:20:55;;;;;;;4.97;2.10;;;;;;;;;;766406;183;695535;-67
2021/10/24 13:23:11;;;;;;;6.97;2.53;;;;;;;;;;769796;183;641778;-66
2021/10/24 13:25:37;;;;;;;4.77;2.57;;;;;;;;;;767591;183;633687;-66
2021/10/24 13:28:03;;;;;;;6.77;2.30;;;;;;;;;;768998;183;642790;-67
2021/10/24 13:30:31;;;;;;;5.80;2.50;;;;;;;;;;771822;183;630371;-67
2021/10/24 13:32:55;;;;;;;4.80;2.80;;;;;;;;;;764328;183;636390;-66
2021/10/24 13:35:21;;;;;;;11.50;2.93;;;;;;;;;;770675;183;636062;-66
2021/10/24 13:37:46;;;;;;;9.93;2.73;;;;;;;;;;767277;183;630363;-66
2021/10/24 13:40:12;;;;;;;6.57;3.17;;;;;;;;;;771637;183;620665;-65
2021/10/24 13:42:38;;;;;;;6.10;2.37;;;;;;;;;;769261;183;627980;-66
2021/10/24 13:45:05;;;;;;;5.73;3.93;;;;;;;;;;769210;183;626269;-66
2021/10/24 13:47:30;;;;;;;9.30;3.43;;;;;;;;;;772888;183;624288;-66
2021/10/24 13:49:56;;;;;;;7.73;2.77;;;;;;;;;;767544;181;648276;-67
2021/10/24 13:52:23;;;;;;;5.70;2.60;;;;;;;;;;772067;182;616783;-66
2021/10/24 13:54:49;;;;;;;8.40;3.10;;;;;;;;;;772552;182;769608;-66
2021/10/24 13:57:14;;;;;;;6.13;2.27;;;;;;;;;;767966;183;922720;-66
2021/10/24 13:59:41;;;;;;;13.13;3.10;;;;;;;;;;768846;183;637158;-66
2021/10/24 14:02:07;;;;;;;8.70;2.90;;;;;;;;;;769130;183;628714;-66
2021/10/24 14:04:33;;;;;;;7.47;2.27;;;;;;;;;;774986;183;615327;-66
2021/10/24 14:06:58;;;;;;;5.77;2.67;;;;;;;;;;767884;183;630720;-66